sensor_id;sensor_type;location;lat;lon;timestamp;P1;durP1;ratioP1;P2;durP2;ratioP2
31866;SDS011;18431;45.580;-122.680;2022-08-03T00:02:02;1.45;;;1.35;;
31866;SDS011;18431;45.580;-122.680;2022-08-03T00:04:31;2.83;;;1.22;;
31866;SDS011;18431;45.580;-122.680;2022-08-03T00:07:02;1.67;;;1.10;;
31866;SDS011;18431;45.580;-122.680;2022-08-03T00:09:32;1.27;;;1.10;;
31866;SDS011;18431;45.580;-122.680;2022-08-03T00:12:02;1.40;;;1.30;;
31866;SDS011;18431;45.580;-122.680;2022-08-03T00:14:32;1.42;;;1.20;;
31866;SDS011;18431;45.580;-122.680;2022-08-03T00:17:02;1.42;;;1.27;;
31866;SDS011;18431;45.580;-122.680;2022-08-03T00:19:32;1.87;;;1.27;;
31866;SDS011;18431;45.580;-122.680;2022-08-03T00:22:02;1.10;;;1.10;;
31866;SDS011;18431;45.580;-122.680;2022-08-03T00:24:32;1.67;;;1.30;;
31866;SDS011;18431;45.580;-122.680;2022-08-03T00:27:02;1.52;;;1.22;;
31866;SDS011;18431;45.580;-122.680;2022-08-03T00:29:33;1.25;;;1.00;;
31866;SDS011;18431;45.580;-122.680;2022-08-03T00:32:03;1.67;;;1.07;;
31866;SDS011;18431;45.580;-122.680;2022-08-03T00:34:33;1.20;;;1.10;;
31866;SDS011;18431;45.580;-122.680;2022-08-03T00:37:03;1.27;;;1.00;;
31866;SDS011;18431;45.580;-122.680;2022-08-03T00:39:33;1.35;;;1.20;;
31866;SDS011;18431;45.580;-122.680;2022-08-03T00:42:03;1.30;;;1.20;;
31866;SDS011;18431;45.580;-122.680;2022-08-03T00:44:38;1.12;;;1.07;;
31866;SDS011;18431;45.580;-122.680;2022-08-03T00:47:07;1.20;;;1.10;;
31866;SDS011;18431;45.580;-122.680;2022-08-03T00:49:38;1.00;;;1.00;;
31866;SDS011;18431;45.580;-122.680;2022-08-03T00:52:08;4.62;;;4.12;;
31866;SDS011;18431;45.580;-122.680;2022-08-03T00:54:39;13.72;;;12.13;;
31866;SDS011;18431;45.580;-122.680;2022-08-03T00:57:09;8.73;;;7.83;;
31866;SDS011;18431;45.580;-122.680;2022-08-03T00:59:41;20.30;;;18.10;;
31866;SDS011;18431;45.580;-122.680;2022-08-03T01:02:12;20.92;;;18.73;;
31866;SDS011;18431;45.580;-122.680;2022-08-03T01:04:42;18.05;;;16.15;;
31866;SDS011;18431;45.580;-122.680;2022-08-03T01:07:15;16.65;;;14.75;;
31866;SDS011;18431;45.580;-122.680;2022-08-03T01:12:51;14.58;;;13.08;;
31866;SDS011;18431;45.580;-122.680;2022-08-03T01:15:37;13.30;;;11.90;;
31866;SDS011;18431;45.580;-122.680;2022-08-03T01:18:30;13.50;;;12.07;;
31866;SDS011;18431;45.580;-122.680;2022-08-03T01:21:09;12.90;;;11.60;;
31866;SDS011;18431;45.580;-122.680;2022-08-03T01:23:53;12.65;;;11.35;;
31866;SDS011;18431;45.580;-122.680;2022-08-03T01:29:32;11.57;;;10.40;;
31866;SDS011;18431;45.580;-122.680;2022-08-03T01:32:03;11.10;;;10.00;;
31866;SDS011;18431;45.580;-122.680;2022-08-03T01:34:40;9.60;;;8.60;;
31866;SDS011;18431;45.580;-122.680;2022-08-03T01:37:09;8.98;;;8.15;;
31866;SDS011;18431;45.580;-122.680;2022-08-03T01:39:42;8.38;;;7.40;;
31866;SDS011;18431;45.580;-122.680;2022-08-03T01:42:13;7.33;;;6.67;;
31866;SDS011;18431;45.580;-122.680;2022-08-03T01:44:44;6.47;;;5.72;;
31866;SDS011;18431;45.580;-122.680;2022-08-03T01:47:17;6.33;;;5.72;;
31866;SDS011;18431;45.580;-122.680;2022-08-03T01:49:47;5.83;;;5.33;;
31866;SDS011;18431;45.580;-122.680;2022-08-03T01:52:19;5.50;;;5.00;;
31866;SDS011;18431;45.580;-122.680;2022-08-03T01:54:51;5.45;;;4.95;;
31866;SDS011;18431;45.580;-122.680;2022-08-03T01:57:22;5.65;;;4.97;;
31866;SDS011;18431;45.580;-122.680;2022-08-03T01:59:53;4.80;;;4.40;;
31866;SDS011;18431;45.580;-122.680;2022-08-03T02:02:24;5.25;;;4.85;;
31866;SDS011;18431;45.580;-122.680;2022-08-03T02:04:56;4.85;;;4.45;;
31866;SDS011;18431;45.580;-122.680;2022-08-03T02:07:27;4.90;;;4.40;;
31866;SDS011;18431;45.580;-122.680;2022-08-03T02:09:59;4.50;;;4.10;;
31866;SDS011;18431;45.580;-122.680;2022-08-03T02:12:31;4.25;;;3.87;;
31866;SDS011;18431;45.580;-122.680;2022-08-03T02:15:02;4.65;;;4.25;;
31866;SDS011;18431;45.580;-122.680;2022-08-03T02:17:34;4.15;;;3.83;;
31866;SDS011;18431;45.580;-122.680;2022-08-03T02:20:05;4.03;;;3.70;;
31866;SDS011;18431;45.580;-122.680;2022-08-03T02:22:42;4.30;;;3.90;;
31866;SDS011;18431;45.580;-122.680;2022-08-03T02:25:12;3.60;;;3.30;;
31866;SDS011;18431;45.580;-122.680;2022-08-03T02:27:45;3.27;;;2.98;;
31866;SDS011;18431;45.580;-122.680;2022-08-03T02:30:20;3.08;;;2.87;;
31866;SDS011;18431;45.580;-122.680;2022-08-03T02:32:53;2.60;;;2.40;;
31866;SDS011;18431;45.580;-122.680;2022-08-03T02:35:23;2.52;;;2.33;;
31866;SDS011;18431;45.580;-122.680;2022-08-03T02:37:58;2.60;;;2.40;;
31866;SDS011;18431;45.580;-122.680;2022-08-03T02:40:27;2.20;;;2.10;;
31866;SDS011;18431;45.580;-122.680;2022-08-03T02:42:58;1.90;;;1.80;;
31866;SDS011;18431;45.580;-122.680;2022-08-03T02:45:34;2.50;;;2.30;;
31866;SDS011;18431;45.580;-122.680;2022-08-03T02:48:05;2.10;;;2.00;;
31866;SDS011;18431;45.580;-122.680;2022-08-03T02:50:36;1.95;;;1.85;;
31866;SDS011;18431;45.580;-122.680;2022-08-03T02:53:07;2.00;;;1.90;;
31866;SDS011;18431;45.580;-122.680;2022-08-03T02:55:39;1.80;;;1.70;;
31866;SDS011;18431;45.580;-122.680;2022-08-03T02:58:10;2.17;;;1.92;;
31866;SDS011;18431;45.580;-122.680;2022-08-03T03:00:44;1.85;;;1.75;;
31866;SDS011;18431;45.580;-122.680;2022-08-03T03:03:17;2.87;;;1.80;;
31866;SDS011;18431;45.580;-122.680;2022-08-03T03:05:46;2.00;;;1.90;;
31866;SDS011;18431;45.580;-122.680;2022-08-03T03:08:18;1.70;;;1.60;;
31866;SDS011;18431;45.580;-122.680;2022-08-03T03:10:49;1.92;;;1.82;;
31866;SDS011;18431;45.580;-122.680;2022-08-03T03:13:19;1.72;;;1.62;;
31866;SDS011;18431;45.580;-122.680;2022-08-03T03:15:50;1.90;;;1.80;;
31866;SDS011;18431;45.580;-122.680;2022-08-03T03:18:21;1.85;;;1.75;;
31866;SDS011;18431;45.580;-122.680;2022-08-03T03:20:55;1.80;;;1.70;;
31866;SDS011;18431;45.580;-122.680;2022-08-03T03:23:25;2.70;;;1.60;;
31866;SDS011;18431;45.580;-122.680;2022-08-03T03:25:57;1.40;;;1.30;;
31866;SDS011;18431;45.580;-122.680;2022-08-03T03:28:28;1.37;;;1.27;;
31866;SDS011;18431;45.580;-122.680;2022-08-03T03:30:59;1.22;;;1.22;;
31866;SDS011;18431;45.580;-122.680;2022-08-03T03:33:32;1.30;;;1.20;;
31866;SDS011;18431;45.580;-122.680;2022-08-03T03:36:02;1.00;;;1.00;;
31866;SDS011;18431;45.580;-122.680;2022-08-03T03:38:33;1.10;;;1.10;;
31866;SDS011;18431;45.580;-122.680;2022-08-03T03:41:03;1.02;;;0.95;;
31866;SDS011;18431;45.580;-122.680;2022-08-03T03:43:33;0.80;;;0.80;;
31866;SDS011;18431;45.580;-122.680;2022-08-03T03:46:03;0.90;;;0.90;;
31866;SDS011;18431;45.580;-122.680;2022-08-03T03:48:33;0.70;;;0.70;;
31866;SDS011;18431;45.580;-122.680;2022-08-03T03:51:03;0.80;;;0.80;;
31866;SDS011;18431;45.580;-122.680;2022-08-03T03:53:33;0.90;;;0.90;;
31866;SDS011;18431;45.580;-122.680;2022-08-03T03:56:03;1.27;;;0.72;;
31866;SDS011;18431;45.580;-122.680;2022-08-03T03:58:33;0.90;;;0.90;;
31866;SDS011;18431;45.580;-122.680;2022-08-03T04:01:03;1.10;;;1.00;;
31866;SDS011;18431;45.580;-122.680;2022-08-03T04:03:32;0.70;;;0.65;;
31866;SDS011;18431;45.580;-122.680;2022-08-03T04:06:04;1.00;;;0.90;;
31866;SDS011;18431;45.580;-122.680;2022-08-03T04:08:51;0.93;;;0.93;;
31866;SDS011;18431;45.580;-122.680;2022-08-03T04:11:40;0.80;;;0.80;;
31866;SDS011;18431;45.580;-122.680;2022-08-03T04:14:34;0.82;;;0.82;;
31866;SDS011;18431;45.580;-122.680;2022-08-03T04:17:06;0.90;;;0.90;;
31866;SDS011;18431;45.580;-122.680;2022-08-03T04:19:40;0.88;;;0.80;;
31866;SDS011;18431;45.580;-122.680;2022-08-03T04:22:12;0.90;;;0.85;;
31866;SDS011;18431;45.580;-122.680;2022-08-03T04:24:51;0.70;;;0.70;;
31866;SDS011;18431;45.580;-122.680;2022-08-03T04:27:24;0.78;;;0.78;;
31866;SDS011;18431;45.580;-122.680;2022-08-03T04:29:57;0.75;;;0.72;;
31866;SDS011;18431;45.580;-122.680;2022-08-03T04:32:30;0.82;;;0.82;;
31866;SDS011;18431;45.580;-122.680;2022-08-03T04:35:01;0.95;;;0.85;;
31866;SDS011;18431;45.580;-122.680;2022-08-03T04:37:38;0.78;;;0.78;;
31866;SDS011;18431;45.580;-122.680;2022-08-03T04:40:12;0.90;;;0.90;;
31866;SDS011;18431;45.580;-122.680;2022-08-03T04:42:42;1.10;;;1.00;;
31866;SDS011;18431;45.580;-122.680;2022-08-03T04:45:13;0.88;;;0.80;;
31866;SDS011;18431;45.580;-122.680;2022-08-03T04:47:43;0.80;;;0.80;;
31866;SDS011;18431;45.580;-122.680;2022-08-03T04:50:15;1.00;;;0.80;;
31866;SDS011;18431;45.580;-122.680;2022-08-03T04:52:46;0.70;;;0.70;;
31866;SDS011;18431;45.580;-122.680;2022-08-03T04:55:26;0.50;;;0.50;;
31866;SDS011;18431;45.580;-122.680;2022-08-03T04:58:00;0.42;;;0.40;;
31866;SDS011;18431;45.580;-122.680;2022-08-03T05:00:30;0.50;;;0.50;;
31866;SDS011;18431;45.580;-122.680;2022-08-03T05:03:00;0.40;;;0.40;;
31866;SDS011;18431;45.580;-122.680;2022-08-03T05:05:30;0.40;;;0.40;;
31866;SDS011;18431;45.580;-122.680;2022-08-03T05:08:00;0.50;;;0.40;;
31866;SDS011;18431;45.580;-122.680;2022-08-03T05:10:29;0.40;;;0.40;;
31866;SDS011;18431;45.580;-122.680;2022-08-03T05:12:59;0.75;;;0.60;;
31866;SDS011;18431;45.580;-122.680;2022-08-03T05:15:29;0.40;;;0.40;;
31866;SDS011;18431;45.580;-122.680;2022-08-03T05:17:59;0.45;;;0.45;;
31866;SDS011;18431;45.580;-122.680;2022-08-03T05:20:29;0.50;;;0.50;;
31866;SDS011;18431;45.580;-122.680;2022-08-03T05:22:59;0.53;;;0.42;;
31866;SDS011;18431;45.580;-122.680;2022-08-03T05:25:30;0.40;;;0.40;;
31866;SDS011;18431;45.580;-122.680;2022-08-03T05:27:59;0.45;;;0.45;;
31866;SDS011;18431;45.580;-122.680;2022-08-03T05:30:29;0.50;;;0.50;;
31866;SDS011;18431;45.580;-122.680;2022-08-03T05:32:59;0.47;;;0.47;;
31866;SDS011;18431;45.580;-122.680;2022-08-03T05:35:30;0.40;;;0.40;;
31866;SDS011;18431;45.580;-122.680;2022-08-03T05:38:01;0.40;;;0.33;;
31866;SDS011;18431;45.580;-122.680;2022-08-03T05:40:32;0.78;;;0.65;;
31866;SDS011;18431;45.580;-122.680;2022-08-03T05:43:02;0.65;;;0.47;;
31866;SDS011;18431;45.580;-122.680;2022-08-03T05:45:32;0.60;;;0.60;;
31866;SDS011;18431;45.580;-122.680;2022-08-03T05:48:09;0.57;;;0.57;;
31866;SDS011;18431;45.580;-122.680;2022-08-03T05:50:34;0.50;;;0.50;;
31866;SDS011;18431;45.580;-122.680;2022-08-03T05:53:04;0.50;;;0.50;;
31866;SDS011;18431;45.580;-122.680;2022-08-03T05:55:34;1.05;;;0.70;;
31866;SDS011;18431;45.580;-122.680;2022-08-03T05:58:05;0.60;;;0.60;;
31866;SDS011;18431;45.580;-122.680;2022-08-03T06:00:34;0.50;;;0.50;;
31866;SDS011;18431;45.580;-122.680;2022-08-03T06:03:04;1.37;;;0.50;;
31866;SDS011;18431;45.580;-122.680;2022-08-03T06:05:34;0.40;;;0.40;;
31866;SDS011;18431;45.580;-122.680;2022-08-03T06:08:05;0.82;;;0.68;;
31866;SDS011;18431;45.580;-122.680;2022-08-03T06:10:34;1.05;;;0.50;;
31866;SDS011;18431;45.580;-122.680;2022-08-03T06:13:04;0.60;;;0.60;;
31866;SDS011;18431;45.580;-122.680;2022-08-03T06:15:34;1.00;;;0.70;;
31866;SDS011;18431;45.580;-122.680;2022-08-03T06:18:04;0.95;;;0.70;;
31866;SDS011;18431;45.580;-122.680;2022-08-03T06:20:34;1.67;;;0.78;;
31866;SDS011;18431;45.580;-122.680;2022-08-03T06:23:04;0.60;;;0.57;;
31866;SDS011;18431;45.580;-122.680;2022-08-03T06:25:34;0.70;;;0.68;;
31866;SDS011;18431;45.580;-122.680;2022-08-03T06:28:05;0.72;;;0.60;;
31866;SDS011;18431;45.580;-122.680;2022-08-03T06:30:35;0.82;;;0.60;;
31866;SDS011;18431;45.580;-122.680;2022-08-03T06:33:05;0.42;;;0.42;;
31866;SDS011;18431;45.580;-122.680;2022-08-03T06:35:36;0.42;;;0.42;;
31866;SDS011;18431;45.580;-122.680;2022-08-03T06:40:55;1.12;;;0.60;;
31866;SDS011;18431;45.580;-122.680;2022-08-03T06:43:25;0.70;;;0.50;;
31866;SDS011;18431;45.580;-122.680;2022-08-03T06:45:55;1.85;;;0.53;;
31866;SDS011;18431;45.580;-122.680;2022-08-03T06:48:26;0.70;;;0.60;;
31866;SDS011;18431;45.580;-122.680;2022-08-03T06:50:56;0.40;;;0.40;;
31866;SDS011;18431;45.580;-122.680;2022-08-03T06:53:26;1.17;;;0.75;;
31866;SDS011;18431;45.580;-122.680;2022-08-03T06:55:56;0.70;;;0.70;;
31866;SDS011;18431;45.580;-122.680;2022-08-03T06:58:26;1.37;;;0.70;;
31866;SDS011;18431;45.580;-122.680;2022-08-03T07:00:56;0.70;;;0.70;;
31866;SDS011;18431;45.580;-122.680;2022-08-03T07:03:26;0.60;;;0.60;;
31866;SDS011;18431;45.580;-122.680;2022-08-03T07:05:56;1.30;;;0.75;;
31866;SDS011;18431;45.580;-122.680;2022-08-03T07:08:26;0.78;;;0.78;;
31866;SDS011;18431;45.580;-122.680;2022-08-03T07:10:56;0.70;;;0.70;;
31866;SDS011;18431;45.580;-122.680;2022-08-03T07:13:26;1.00;;;0.70;;
31866;SDS011;18431;45.580;-122.680;2022-08-03T07:15:56;1.00;;;0.90;;
31866;SDS011;18431;45.580;-122.680;2022-08-03T07:18:26;0.88;;;0.88;;
31866;SDS011;18431;45.580;-122.680;2022-08-03T07:20:57;1.15;;;0.80;;
31866;SDS011;18431;45.580;-122.680;2022-08-03T07:23:27;0.70;;;0.70;;
31866;SDS011;18431;45.580;-122.680;2022-08-03T07:25:57;0.93;;;0.82;;
31866;SDS011;18431;45.580;-122.680;2022-08-03T07:28:27;0.88;;;0.88;;
31866;SDS011;18431;45.580;-122.680;2022-08-03T07:30:56;0.78;;;0.78;;
31866;SDS011;18431;45.580;-122.680;2022-08-03T07:33:26;0.70;;;0.70;;
31866;SDS011;18431;45.580;-122.680;2022-08-03T07:35:56;0.62;;;0.62;;
31866;SDS011;18431;45.580;-122.680;2022-08-03T07:38:26;0.62;;;0.60;;
31866;SDS011;18431;45.580;-122.680;2022-08-03T07:40:56;0.70;;;0.70;;
31866;SDS011;18431;45.580;-122.680;2022-08-03T07:43:27;1.35;;;0.93;;
31866;SDS011;18431;45.580;-122.680;2022-08-03T07:45:57;1.67;;;1.00;;
31866;SDS011;18431;45.580;-122.680;2022-08-03T07:48:27;0.80;;;0.80;;
31866;SDS011;18431;45.580;-122.680;2022-08-03T07:50:57;0.70;;;0.70;;
31866;SDS011;18431;45.580;-122.680;2022-08-03T07:53:26;0.80;;;0.80;;
31866;SDS011;18431;45.580;-122.680;2022-08-03T07:55:57;0.70;;;0.70;;
31866;SDS011;18431;45.580;-122.680;2022-08-03T07:58:27;0.70;;;0.70;;
31866;SDS011;18431;45.580;-122.680;2022-08-03T08:00:57;1.47;;;0.72;;
31866;SDS011;18431;45.580;-122.680;2022-08-03T08:03:27;1.07;;;0.98;;
31866;SDS011;18431;45.580;-122.680;2022-08-03T08:05:57;0.80;;;0.70;;
31866;SDS011;18431;45.580;-122.680;2022-08-03T08:08:26;0.70;;;0.70;;
31866;SDS011;18431;45.580;-122.680;2022-08-03T08:10:57;0.98;;;0.98;;
31866;SDS011;18431;45.580;-122.680;2022-08-03T08:13:29;1.02;;;0.90;;
31866;SDS011;18431;45.580;-122.680;2022-08-03T08:15:59;0.80;;;0.80;;
31866;SDS011;18431;45.580;-122.680;2022-08-03T08:18:28;0.82;;;0.82;;
31866;SDS011;18431;45.580;-122.680;2022-08-03T08:20:58;1.00;;;0.90;;
31866;SDS011;18431;45.580;-122.680;2022-08-03T08:23:31;1.15;;;0.93;;
31866;SDS011;18431;45.580;-122.680;2022-08-03T08:26:00;1.00;;;0.90;;
31866;SDS011;18431;45.580;-122.680;2022-08-03T08:28:30;10.30;;;1.27;;
31866;SDS011;18431;45.580;-122.680;2022-08-03T08:31:00;1.50;;;0.90;;
31866;SDS011;18431;45.580;-122.680;2022-08-03T08:33:30;1.35;;;1.05;;
31866;SDS011;18431;45.580;-122.680;2022-08-03T08:36:01;1.07;;;0.98;;
31866;SDS011;18431;45.580;-122.680;2022-08-03T08:38:31;2.05;;;0.90;;
31866;SDS011;18431;45.580;-122.680;2022-08-03T08:41:02;0.80;;;0.80;;
31866;SDS011;18431;45.580;-122.680;2022-08-03T08:43:33;1.15;;;0.95;;
31866;SDS011;18431;45.580;-122.680;2022-08-03T08:46:02;0.78;;;0.78;;
31866;SDS011;18431;45.580;-122.680;2022-08-03T08:48:34;1.30;;;0.90;;
31866;SDS011;18431;45.580;-122.680;2022-08-03T08:51:06;2.55;;;0.90;;
31866;SDS011;18431;45.580;-122.680;2022-08-03T08:53:39;1.07;;;0.98;;
31866;SDS011;18431;45.580;-122.680;2022-08-03T08:56:11;1.00;;;1.00;;
31866;SDS011;18431;45.580;-122.680;2022-08-03T08:58:50;1.00;;;1.00;;
31866;SDS011;18431;45.580;-122.680;2022-08-03T09:01:20;1.47;;;1.27;;
31866;SDS011;18431;45.580;-122.680;2022-08-03T09:06:38;0.98;;;0.98;;
31866;SDS011;18431;45.580;-122.680;2022-08-03T09:09:08;1.10;;;1.10;;
31866;SDS011;18431;45.580;-122.680;2022-08-03T09:11:41;0.80;;;0.80;;
31866;SDS011;18431;45.580;-122.680;2022-08-03T09:14:12;1.20;;;1.10;;
31866;SDS011;18431;45.580;-122.680;2022-08-03T09:16:54;1.42;;;0.80;;
31866;SDS011;18431;45.580;-122.680;2022-08-03T09:19:31;2.02;;;1.15;;
31866;SDS011;18431;45.580;-122.680;2022-08-03T09:22:10;0.95;;;0.93;;
31866;SDS011;18431;45.580;-122.680;2022-08-03T09:25:00;1.22;;;1.12;;
31866;SDS011;18431;45.580;-122.680;2022-08-03T09:27:27;1.30;;;1.20;;
31866;SDS011;18431;45.580;-122.680;2022-08-03T09:29:58;1.20;;;1.10;;
31866;SDS011;18431;45.580;-122.680;2022-08-03T09:32:30;1.85;;;1.02;;
31866;SDS011;18431;45.580;-122.680;2022-08-03T09:35:02;1.10;;;1.10;;
31866;SDS011;18431;45.580;-122.680;2022-08-03T09:37:32;1.15;;;1.05;;
31866;SDS011;18431;45.580;-122.680;2022-08-03T09:40:02;1.20;;;1.10;;
31866;SDS011;18431;45.580;-122.680;2022-08-03T09:42:34;1.82;;;1.30;;
31866;SDS011;18431;45.580;-122.680;2022-08-03T09:45:05;1.07;;;1.07;;
31866;SDS011;18431;45.580;-122.680;2022-08-03T09:47:36;1.45;;;1.35;;
31866;SDS011;18431;45.580;-122.680;2022-08-03T09:50:07;1.30;;;1.20;;
31866;SDS011;18431;45.580;-122.680;2022-08-03T09:52:38;1.70;;;1.40;;
31866;SDS011;18431;45.580;-122.680;2022-08-03T09:55:09;1.30;;;1.20;;
31866;SDS011;18431;45.580;-122.680;2022-08-03T09:57:42;1.40;;;1.17;;
31866;SDS011;18431;45.580;-122.680;2022-08-03T10:00:13;1.32;;;1.10;;
31866;SDS011;18431;45.580;-122.680;2022-08-03T10:03:02;1.30;;;1.20;;
31866;SDS011;18431;45.580;-122.680;2022-08-03T10:05:30;1.35;;;1.25;;
31866;SDS011;18431;45.580;-122.680;2022-08-03T10:08:09;1.20;;;1.10;;
31866;SDS011;18431;45.580;-122.680;2022-08-03T10:10:40;1.20;;;1.10;;
31866;SDS011;18431;45.580;-122.680;2022-08-03T10:13:06;1.30;;;1.20;;
31866;SDS011;18431;45.580;-122.680;2022-08-03T10:15:36;1.40;;;1.30;;
31866;SDS011;18431;45.580;-122.680;2022-08-03T10:18:07;1.40;;;1.30;;
31866;SDS011;18431;45.580;-122.680;2022-08-03T10:20:40;1.60;;;1.30;;
31866;SDS011;18431;45.580;-122.680;2022-08-03T10:23:15;1.10;;;1.10;;
31866;SDS011;18431;45.580;-122.680;2022-08-03T10:25:46;2.35;;;1.20;;
31866;SDS011;18431;45.580;-122.680;2022-08-03T10:28:17;2.15;;;1.30;;
31866;SDS011;18431;45.580;-122.680;2022-08-03T10:30:48;1.17;;;1.07;;
31866;SDS011;18431;45.580;-122.680;2022-08-03T10:33:20;2.15;;;1.20;;
31866;SDS011;18431;45.580;-122.680;2022-08-03T10:35:53;1.25;;;1.15;;
31866;SDS011;18431;45.580;-122.680;2022-08-03T10:38:25;2.17;;;1.30;;
31866;SDS011;18431;45.580;-122.680;2022-08-03T10:40:59;1.57;;;1.20;;
31866;SDS011;18431;45.580;-122.680;2022-08-03T10:43:33;1.07;;;1.05;;
31866;SDS011;18431;45.580;-122.680;2022-08-03T10:46:09;1.17;;;1.00;;
31866;SDS011;18431;45.580;-122.680;2022-08-03T10:48:40;1.82;;;1.00;;
31866;SDS011;18431;45.580;-122.680;2022-08-03T10:51:11;1.17;;;1.00;;
31866;SDS011;18431;45.580;-122.680;2022-08-03T10:53:41;1.20;;;1.10;;
31866;SDS011;18431;45.580;-122.680;2022-08-03T10:59:18;1.10;;;1.00;;
31866;SDS011;18431;45.580;-122.680;2022-08-03T11:01:50;1.25;;;1.15;;
31866;SDS011;18431;45.580;-122.680;2022-08-03T11:09:48;1.90;;;1.00;;
31866;SDS011;18431;45.580;-122.680;2022-08-03T11:12:25;1.20;;;1.10;;
31866;SDS011;18431;45.580;-122.680;2022-08-03T11:14:59;0.95;;;0.95;;
31866;SDS011;18431;45.580;-122.680;2022-08-03T11:17:30;1.00;;;0.90;;
31866;SDS011;18431;45.580;-122.680;2022-08-03T11:20:01;1.10;;;1.10;;
31866;SDS011;18431;45.580;-122.680;2022-08-03T11:25:17;1.00;;;1.00;;
31866;SDS011;18431;45.580;-122.680;2022-08-03T11:27:47;2.02;;;1.00;;
31866;SDS011;18431;45.580;-122.680;2022-08-03T11:32:52;0.80;;;0.80;;
31866;SDS011;18431;45.580;-122.680;2022-08-03T11:35:24;1.98;;;1.10;;
31866;SDS011;18431;45.580;-122.680;2022-08-03T11:43:07;1.22;;;1.12;;
31866;SDS011;18431;45.580;-122.680;2022-08-03T11:45:37;1.45;;;1.20;;
31866;SDS011;18431;45.580;-122.680;2022-08-03T11:48:12;2.05;;;0.98;;
31866;SDS011;18431;45.580;-122.680;2022-08-03T11:50:43;1.02;;;1.00;;
31866;SDS011;18431;45.580;-122.680;2022-08-03T11:53:14;1.37;;;1.17;;
31866;SDS011;18431;45.580;-122.680;2022-08-03T11:55:45;1.07;;;1.00;;
31866;SDS011;18431;45.580;-122.680;2022-08-03T11:58:19;1.35;;;1.25;;
31866;SDS011;18431;45.580;-122.680;2022-08-03T12:00:49;1.50;;;1.40;;
31866;SDS011;18431;45.580;-122.680;2022-08-03T12:03:21;1.30;;;1.20;;
31866;SDS011;18431;45.580;-122.680;2022-08-03T12:05:52;1.15;;;1.02;;
31866;SDS011;18431;45.580;-122.680;2022-08-03T12:11:02;2.42;;;1.22;;
31866;SDS011;18431;45.580;-122.680;2022-08-03T12:13:41;1.25;;;1.00;;
31866;SDS011;18431;45.580;-122.680;2022-08-03T12:19:00;1.17;;;1.10;;
31866;SDS011;18431;45.580;-122.680;2022-08-03T12:21:31;1.20;;;1.10;;
31866;SDS011;18431;45.580;-122.680;2022-08-03T12:24:03;1.42;;;1.20;;
31866;SDS011;18431;45.580;-122.680;2022-08-03T12:26:42;1.35;;;1.15;;
31866;SDS011;18431;45.580;-122.680;2022-08-03T12:29:21;1.42;;;1.10;;
31866;SDS011;18431;45.580;-122.680;2022-08-03T12:31:52;1.20;;;0.93;;
31866;SDS011;18431;45.580;-122.680;2022-08-03T12:34:23;1.02;;;0.93;;
31866;SDS011;18431;45.580;-122.680;2022-08-03T12:36:54;1.00;;;0.90;;
31866;SDS011;18431;45.580;-122.680;2022-08-03T12:39:25;1.35;;;1.00;;
31866;SDS011;18431;45.580;-122.680;2022-08-03T12:41:56;1.25;;;1.15;;
31866;SDS011;18431;45.580;-122.680;2022-08-03T12:44:29;2.45;;;1.17;;
31866;SDS011;18431;45.580;-122.680;2022-08-03T12:47:01;1.40;;;1.10;;
31866;SDS011;18431;45.580;-122.680;2022-08-03T12:49:45;1.25;;;1.15;;
31866;SDS011;18431;45.580;-122.680;2022-08-03T12:52:16;1.30;;;1.10;;
31866;SDS011;18431;45.580;-122.680;2022-08-03T12:54:55;1.52;;;1.30;;
31866;SDS011;18431;45.580;-122.680;2022-08-03T12:57:39;1.07;;;1.07;;
31866;SDS011;18431;45.580;-122.680;2022-08-03T13:00:08;1.67;;;1.25;;
31866;SDS011;18431;45.580;-122.680;2022-08-03T13:02:32;1.25;;;1.20;;
31866;SDS011;18431;45.580;-122.680;2022-08-03T13:05:08;1.30;;;1.20;;
31866;SDS011;18431;45.580;-122.680;2022-08-03T13:07:40;1.47;;;1.07;;
31866;SDS011;18431;45.580;-122.680;2022-08-03T13:10:10;1.52;;;1.20;;
31866;SDS011;18431;45.580;-122.680;2022-08-03T13:12:45;1.35;;;1.20;;
31866;SDS011;18431;45.580;-122.680;2022-08-03T13:15:16;1.20;;;1.10;;
31866;SDS011;18431;45.580;-122.680;2022-08-03T13:17:46;1.27;;;1.17;;
31866;SDS011;18431;45.580;-122.680;2022-08-03T13:20:16;2.35;;;1.30;;
31866;SDS011;18431;45.580;-122.680;2022-08-03T13:22:48;7.87;;;1.70;;
31866;SDS011;18431;45.580;-122.680;2022-08-03T13:25:17;2.12;;;1.30;;
31866;SDS011;18431;45.580;-122.680;2022-08-03T13:27:47;2.02;;;1.20;;
31866;SDS011;18431;45.580;-122.680;2022-08-03T13:30:18;1.22;;;1.12;;
31866;SDS011;18431;45.580;-122.680;2022-08-03T13:32:48;0.90;;;0.90;;
31866;SDS011;18431;45.580;-122.680;2022-08-03T13:35:18;1.20;;;1.20;;
31866;SDS011;18431;45.580;-122.680;2022-08-03T13:37:48;1.30;;;1.20;;
31866;SDS011;18431;45.580;-122.680;2022-08-03T13:40:18;1.12;;;1.02;;
31866;SDS011;18431;45.580;-122.680;2022-08-03T13:42:48;1.30;;;1.20;;
31866;SDS011;18431;45.580;-122.680;2022-08-03T13:45:17;1.60;;;1.10;;
31866;SDS011;18431;45.580;-122.680;2022-08-03T13:47:47;1.60;;;1.50;;
31866;SDS011;18431;45.580;-122.680;2022-08-03T13:50:17;1.35;;;1.30;;
31866;SDS011;18431;45.580;-122.680;2022-08-03T13:52:48;1.20;;;1.20;;
31866;SDS011;18431;45.580;-122.680;2022-08-03T13:55:18;1.72;;;1.22;;
31866;SDS011;18431;45.580;-122.680;2022-08-03T13:57:48;1.10;;;1.02;;
31866;SDS011;18431;45.580;-122.680;2022-08-03T14:00:18;1.50;;;1.30;;
31866;SDS011;18431;45.580;-122.680;2022-08-03T14:02:52;1.50;;;1.40;;
31866;SDS011;18431;45.580;-122.680;2022-08-03T14:08:11;1.92;;;1.30;;
31866;SDS011;18431;45.580;-122.680;2022-08-03T14:10:41;1.60;;;1.50;;
31866;SDS011;18431;45.580;-122.680;2022-08-03T14:13:13;1.57;;;1.25;;
31866;SDS011;18431;45.580;-122.680;2022-08-03T14:15:43;1.62;;;1.50;;
31866;SDS011;18431;45.580;-122.680;2022-08-03T14:18:13;2.00;;;1.42;;
31866;SDS011;18431;45.580;-122.680;2022-08-03T14:20:43;1.90;;;1.40;;
31866;SDS011;18431;45.580;-122.680;2022-08-03T14:23:13;1.20;;;1.00;;
31866;SDS011;18431;45.580;-122.680;2022-08-03T14:25:43;1.30;;;1.30;;
31866;SDS011;18431;45.580;-122.680;2022-08-03T14:28:13;1.27;;;1.27;;
31866;SDS011;18431;45.580;-122.680;2022-08-03T14:30:43;2.92;;;1.42;;
31866;SDS011;18431;45.580;-122.680;2022-08-03T14:33:14;1.87;;;1.45;;
31866;SDS011;18431;45.580;-122.680;2022-08-03T14:35:44;1.47;;;1.37;;
31866;SDS011;18431;45.580;-122.680;2022-08-03T14:38:14;1.37;;;1.27;;
31866;SDS011;18431;45.580;-122.680;2022-08-03T14:40:46;1.30;;;1.22;;
31866;SDS011;18431;45.580;-122.680;2022-08-03T14:43:17;1.45;;;1.35;;
31866;SDS011;18431;45.580;-122.680;2022-08-03T14:45:49;1.60;;;1.50;;
31866;SDS011;18431;45.580;-122.680;2022-08-03T14:48:20;1.85;;;1.30;;
31866;SDS011;18431;45.580;-122.680;2022-08-03T14:50:51;1.55;;;1.45;;
31866;SDS011;18431;45.580;-122.680;2022-08-03T14:53:21;1.55;;;1.45;;
31866;SDS011;18431;45.580;-122.680;2022-08-03T14:55:51;1.55;;;1.45;;
31866;SDS011;18431;45.580;-122.680;2022-08-03T14:58:21;1.50;;;1.40;;
31866;SDS011;18431;45.580;-122.680;2022-08-03T15:00:52;1.62;;;1.35;;
31866;SDS011;18431;45.580;-122.680;2022-08-03T15:03:23;1.47;;;1.37;;
31866;SDS011;18431;45.580;-122.680;2022-08-03T15:05:54;1.55;;;1.42;;
31866;SDS011;18431;45.580;-122.680;2022-08-03T15:08:24;1.50;;;1.40;;
31866;SDS011;18431;45.580;-122.680;2022-08-03T15:10:54;1.47;;;1.37;;
31866;SDS011;18431;45.580;-122.680;2022-08-03T15:13:24;1.90;;;1.45;;